createdAt,value
2019-03-01T00:01:02.559Z,6.10
2019-03-01T00:03:31.306Z,6.20
2019-03-01T00:06:20.267Z,6.20
2019-03-01T00:08:54.547Z,6.30
2019-03-01T00:11:32.006Z,6.40
2019-03-01T00:14:09.111Z,6.20
2019-03-01T00:17:02.894Z,6.00
2019-03-01T00:19:40.160Z,6.00
2019-03-01T00:22:27.964Z,5.90
2019-03-01T00:25:14.482Z,6.10
2019-03-01T00:28:18.923Z,6.10
2019-03-01T00:31:01.568Z,5.90
2019-03-01T00:33:41.954Z,5.80
2019-03-01T00:36:43.295Z,5.80
2019-03-01T00:39:32.602Z,5.90
2019-03-01T00:42:32.273Z,5.90
2019-03-01T00:45:00.747Z,5.90
2019-03-01T00:47:29.185Z,5.90
2019-03-01T00:49:57.677Z,5.90
2019-03-01T00:52:26.178Z,5.80
2019-03-01T00:54:54.713Z,5.80
2019-03-01T00:57:23.155Z,5.80
2019-03-01T00:59:51.616Z,5.80
2019-03-01T01:02:20.069Z,5.70
2019-03-01T01:04:48.522Z,5.80
2019-03-01T01:07:16.970Z,5.80
2019-03-01T01:09:45.421Z,5.70
2019-03-01T01:12:13.863Z,5.70
2019-03-01T01:14:42.321Z,5.80
2019-03-01T01:17:10.776Z,5.70
2019-03-01T01:19:39.242Z,5.70
2019-03-01T01:22:07.689Z,5.70
2019-03-01T01:24:36.142Z,5.60
2019-03-01T01:27:04.585Z,5.60
2019-03-01T01:29:33.041Z,5.70
2019-03-01T01:32:01.474Z,5.70
2019-03-01T01:34:29.923Z,5.60
2019-03-01T01:36:58.358Z,5.60
2019-03-01T01:39:26.814Z,5.70
2019-03-01T01:41:55.266Z,5.70
2019-03-01T01:44:23.722Z,5.70
2019-03-01T01:46:52.168Z,5.70
2019-03-01T01:49:20.623Z,5.70
2019-03-01T01:51:49.054Z,5.70
2019-03-01T01:54:17.502Z,5.60
2019-03-01T01:56:45.948Z,5.60
2019-03-01T01:59:14.389Z,5.50
2019-03-01T02:01:42.918Z,5.50
2019-03-01T02:04:11.409Z,5.50
2019-03-01T02:06:39.873Z,5.60
2019-03-01T02:09:17.572Z,5.60
2019-03-01T02:11:46.041Z,5.50
2019-03-01T02:14:14.480Z,5.40
2019-03-01T02:16:42.938Z,5.30
2019-03-01T02:19:11.381Z,5.30
2019-03-01T02:21:39.836Z,5.10
2019-03-01T02:24:08.276Z,5.00
2019-03-01T02:26:36.739Z,4.90
2019-03-01T02:29:05.182Z,4.90
2019-03-01T02:31:33.648Z,4.90
2019-03-01T02:34:02.162Z,4.90
2019-03-01T02:36:30.628Z,4.90
2019-03-01T02:38:59.082Z,4.80
2019-03-01T02:41:27.542Z,4.80
2019-03-01T02:43:55.992Z,4.80
2019-03-01T02:46:24.442Z,4.80
2019-03-01T02:48:52.886Z,4.70
2019-03-01T02:51:21.361Z,4.70
2019-03-01T02:53:49.795Z,4.70
2019-03-01T02:56:18.250Z,4.70
2019-03-01T02:58:46.684Z,4.60
2019-03-01T03:01:15.171Z,4.70
2019-03-01T03:03:43.606Z,4.70
2019-03-01T03:06:13.770Z,4.80
2019-03-01T03:08:42.224Z,4.90
2019-03-01T03:11:10.671Z,4.90
2019-03-01T03:13:39.141Z,3.40
2019-03-01T03:16:07.663Z,5.20
2019-03-01T03:18:36.193Z,5.40
2019-03-01T03:21:04.647Z,5.50
2019-03-01T03:23:33.093Z,5.60
2019-03-01T03:26:01.546Z,5.70
2019-03-01T03:28:29.992Z,5.70
2019-03-01T03:30:58.444Z,5.80
2019-03-01T03:33:26.907Z,5.80
2019-03-01T03:35:55.347Z,5.70
2019-03-01T03:38:23.815Z,5.60
2019-03-01T03:40:52.246Z,5.70
2019-03-01T03:43:22.657Z,5.70
2019-03-01T03:45:50.872Z,5.70
2019-03-01T03:48:19.410Z,5.70
2019-03-01T03:50:47.849Z,5.70
2019-03-01T03:53:16.314Z,5.70
2019-03-01T03:55:44.769Z,5.80
2019-03-01T03:58:13.324Z,5.70
2019-03-01T04:00:41.766Z,5.60
2019-03-01T04:03:10.220Z,5.50
2019-03-01T04:05:38.668Z,5.50
2019-03-01T04:08:07.112Z,5.50
2019-03-01T04:10:35.539Z,5.70
2019-03-01T04:13:04.004Z,5.60
2019-03-01T04:15:32.436Z,5.50
2019-03-01T04:18:00.900Z,5.70
2019-03-01T04:20:29.410Z,5.60
2019-03-01T04:22:57.875Z,5.70
2019-03-01T04:25:26.330Z,5.60
2019-03-01T04:27:54.787Z,5.60
2019-03-01T04:30:23.210Z,5.50
2019-03-01T04:32:51.678Z,5.50
2019-03-01T04:35:20.399Z,5.40
2019-03-01T04:37:48.838Z,5.30
2019-03-01T04:40:17.364Z,5.40
2019-03-01T04:42:45.807Z,5.40
2019-03-01T04:45:17.999Z,5.30
2019-03-01T04:47:46.430Z,5.30
2019-03-01T04:50:14.964Z,5.40
2019-03-01T04:52:43.420Z,5.60
2019-03-01T04:55:22.832Z,5.50
2019-03-01T04:57:51.266Z,5.40
2019-03-01T05:00:24.024Z,5.30
2019-03-01T05:02:52.483Z,5.30
2019-03-01T05:05:20.943Z,5.30
2019-03-01T05:07:49.389Z,5.30
2019-03-01T05:10:17.849Z,5.30
2019-03-01T05:12:46.303Z,5.30
2019-03-01T05:15:20.185Z,5.30
2019-03-01T05:17:48.646Z,5.30
2019-03-01T05:20:17.187Z,5.40
2019-03-01T05:22:45.617Z,5.50
2019-03-01T05:25:14.216Z,5.50
2019-03-01T05:27:42.648Z,5.60
2019-03-01T05:30:13.656Z,5.70
2019-03-01T05:32:42.083Z,5.90
2019-03-01T05:35:10.606Z,5.90
2019-03-01T05:37:39.045Z,5.80
2019-03-01T05:40:10.553Z,5.70
2019-03-01T05:42:39.006Z,5.70
2019-03-01T05:45:13.434Z,5.80
2019-03-01T05:47:41.880Z,5.90
2019-03-01T05:50:12.974Z,5.80
2019-03-01T05:52:41.450Z,5.70
2019-03-01T05:55:11.545Z,5.70
2019-03-01T05:58:16.773Z,5.60
2019-03-01T06:00:45.873Z,5.60
2019-03-01T06:03:40.991Z,5.80
2019-03-01T06:06:12.503Z,5.90
2019-03-01T06:08:58.715Z,5.90
2019-03-01T06:11:32.978Z,5.90
2019-03-01T06:14:04.495Z,5.80
2019-03-01T06:16:44.814Z,5.90
2019-03-01T06:19:28.026Z,6.00
2019-03-01T06:22:14.157Z,6.00
2019-03-01T06:25:00.457Z,6.00
2019-03-01T06:28:04.698Z,6.00
2019-03-01T06:30:51.642Z,6.00
2019-03-01T06:33:49.555Z,6.10
2019-03-01T06:36:32.617Z,6.20
2019-03-01T06:39:17.108Z,6.30
2019-03-01T06:42:01.109Z,6.30
2019-03-01T06:44:52.068Z,6.40
2019-03-01T06:47:41.714Z,6.40
2019-03-01T06:50:17.430Z,6.40
2019-03-01T06:52:45.897Z,6.50
2019-03-01T06:55:17.438Z,6.50
2019-03-01T06:57:45.876Z,6.50
2019-03-01T07:00:14.322Z,6.50
2019-03-01T07:02:47.083Z,6.50
2019-03-01T07:05:15.529Z,6.40
2019-03-01T07:07:43.978Z,6.30
2019-03-01T07:10:12.484Z,6.40
2019-03-01T07:12:40.958Z,6.40
2019-03-01T07:15:09.402Z,6.40
2019-03-01T07:17:37.856Z,6.40
2019-03-01T07:20:08.708Z,6.50
2019-03-01T07:22:37.251Z,6.40
2019-03-01T07:25:06.834Z,6.40
2019-03-01T07:27:35.346Z,6.30
2019-03-01T07:30:10.902Z,6.30
2019-03-01T07:32:39.384Z,6.40
2019-03-01T07:35:09.173Z,6.30
2019-03-01T07:37:37.715Z,6.30
2019-03-01T07:40:08.621Z,6.40
2019-03-01T07:42:37.079Z,6.30
2019-03-01T07:45:07.664Z,6.30
2019-03-01T07:47:36.180Z,6.30
2019-03-01T07:50:07.698Z,6.30
2019-03-01T07:52:36.157Z,6.30
2019-03-01T07:55:09.182Z,6.30
2019-03-01T07:57:37.458Z,6.30
2019-03-01T08:00:14.802Z,6.30
2019-03-01T08:02:45.449Z,6.30
2019-03-01T08:05:16.215Z,6.30
2019-03-01T08:07:44.491Z,6.40
2019-03-01T08:10:20.914Z,6.40
2019-03-01T08:12:47.531Z,6.40
2019-03-01T08:15:17.863Z,6.40
2019-03-01T08:17:46.415Z,6.40
2019-03-01T08:20:16.147Z,6.40
2019-03-01T08:22:48.526Z,6.50
2019-03-01T08:25:14.778Z,6.60
2019-03-01T08:27:46.429Z,6.60
2019-03-01T08:30:17.058Z,6.70
2019-03-01T08:32:45.523Z,6.70
2019-03-01T08:35:14.893Z,6.80
2019-03-01T08:37:43.344Z,6.80
2019-03-01T08:40:17.368Z,6.90
2019-03-01T08:42:46.002Z,6.90
2019-03-01T08:45:16.732Z,6.90
2019-03-01T08:47:45.207Z,6.90
2019-03-01T08:50:17.552Z,6.90
2019-03-01T08:52:46.557Z,6.90
2019-03-01T08:55:25.839Z,6.90
2019-03-01T08:57:54.373Z,6.80
2019-03-01T09:00:28.257Z,6.80
2019-03-01T09:02:59.599Z,6.70
2019-03-01T09:05:28.037Z,6.60
2019-03-01T09:07:56.502Z,6.70
2019-03-01T09:10:24.972Z,6.70
2019-03-01T09:12:53.438Z,6.70
2019-03-01T09:15:21.879Z,6.80
2019-03-01T09:17:50.336Z,6.80
2019-03-01T09:20:19.114Z,6.80
2019-03-01T09:22:47.718Z,6.80
2019-03-01T09:25:16.713Z,6.80
2019-03-01T09:27:45.151Z,6.70
2019-03-01T09:30:18.615Z,6.70
2019-03-01T09:32:47.136Z,6.80
2019-03-01T09:35:34.081Z,6.80
2019-03-01T09:38:04.556Z,6.70
2019-03-01T09:40:32.784Z,6.70
2019-03-01T09:43:01.281Z,6.70
2019-03-01T09:45:36.299Z,6.80
2019-03-01T09:48:00.030Z,6.80
2019-03-01T09:50:31.525Z,6.80
2019-03-01T09:52:59.191Z,6.80
2019-03-01T09:55:28.339Z,6.80
2019-03-01T09:57:56.808Z,6.90
2019-03-01T10:00:31.485Z,6.90
2019-03-01T10:02:59.952Z,6.80
2019-03-01T10:05:28.458Z,6.90
2019-03-01T10:07:56.935Z,6.90
2019-03-01T10:10:27.729Z,6.90
2019-03-01T10:12:56.254Z,6.90
2019-03-01T10:15:24.681Z,7.00
2019-03-01T10:17:53.233Z,7.00
2019-03-01T10:20:21.766Z,6.90
2019-03-01T10:22:50.287Z,6.80
2019-03-01T10:25:19.767Z,6.60
2019-03-01T10:27:48.247Z,6.70
2019-03-01T10:30:18.331Z,6.80
2019-03-01T10:32:46.882Z,6.80
2019-03-01T10:35:15.953Z,6.90
2019-03-01T10:37:44.663Z,6.90
2019-03-01T10:40:15.040Z,6.80
2019-03-01T10:42:43.534Z,6.90
2019-03-01T10:45:14.919Z,6.80
2019-03-01T10:47:43.372Z,6.70
2019-03-01T10:50:12.352Z,6.60
2019-03-01T10:52:40.884Z,6.50
2019-03-01T10:55:17.234Z,6.50
2019-03-01T10:57:45.702Z,6.50
2019-03-01T11:00:27.090Z,6.50
2019-03-01T11:02:56.503Z,6.40
2019-03-01T11:05:25.674Z,6.50
2019-03-01T11:07:54.873Z,6.40
2019-03-01T11:10:37.808Z,6.40
2019-03-01T11:13:08.788Z,6.40
2019-03-01T11:15:37.235Z,6.30
2019-03-01T11:18:05.870Z,6.20
2019-03-01T11:20:34.383Z,6.20
2019-03-01T11:23:02.910Z,6.20
2019-03-01T11:25:31.349Z,6.20
2019-03-01T11:27:59.819Z,6.20
2019-03-01T11:30:35.419Z,6.20
2019-03-01T11:33:03.942Z,6.20
2019-03-01T11:35:32.393Z,6.20
2019-03-01T11:38:00.861Z,6.10
2019-03-01T11:40:36.838Z,6.10
2019-03-01T11:43:05.860Z,6.20
2019-03-01T11:45:34.370Z,6.20
2019-03-01T11:48:03.488Z,6.20
2019-03-01T11:50:31.957Z,6.30
2019-03-01T11:53:00.411Z,6.30
2019-03-01T11:55:28.879Z,6.30
2019-03-01T11:57:57.330Z,6.30
2019-03-01T12:00:26.923Z,6.30
2019-03-01T12:02:55.445Z,6.30
2019-03-01T12:05:23.940Z,6.30
2019-03-01T12:07:52.388Z,6.30
2019-03-01T12:10:22.376Z,6.30
2019-03-01T12:12:50.828Z,6.40
2019-03-01T12:15:19.276Z,6.40
2019-03-01T12:17:47.708Z,6.40
2019-03-01T12:20:18.409Z,6.40
2019-03-01T12:22:46.853Z,6.40
2019-03-01T12:25:15.454Z,6.40
2019-03-01T12:27:43.886Z,6.30
2019-03-01T12:30:15.254Z,6.30
2019-03-01T12:32:43.685Z,6.40
2019-03-01T12:35:12.237Z,6.40
2019-03-01T12:37:40.681Z,6.30
2019-03-01T12:40:18.032Z,6.20
2019-03-01T12:42:46.476Z,6.10
2019-03-01T12:45:15.788Z,6.10
2019-03-01T12:47:44.530Z,6.10
2019-03-01T12:50:14.046Z,6.20
2019-03-01T12:52:42.788Z,6.20
2019-03-01T12:55:24.239Z,6.20
2019-03-01T12:57:52.749Z,6.10
2019-03-01T13:00:27.311Z,6.00
2019-03-01T13:02:55.751Z,6.00
2019-03-01T13:05:25.694Z,6.00
2019-03-01T13:07:54.591Z,6.00
2019-03-01T13:10:25.162Z,5.90
2019-03-01T13:12:54.656Z,6.00
2019-03-01T13:15:23.224Z,5.90
2019-03-01T13:17:51.659Z,5.90
2019-03-01T13:20:20.347Z,5.80
2019-03-01T13:22:48.862Z,5.70
2019-03-01T13:25:17.334Z,5.50
2019-03-01T13:27:48.756Z,5.50
2019-03-01T13:30:18.634Z,5.40
2019-03-01T13:32:47.070Z,5.40
2019-03-01T13:35:17.382Z,5.40
2019-03-01T13:37:45.823Z,5.40
2019-03-01T13:40:16.238Z,5.40
2019-03-01T13:42:47.157Z,5.60
2019-03-01T13:45:17.358Z,5.70
2019-03-01T13:47:45.855Z,5.80
2019-03-01T13:50:21.231Z,5.80
2019-03-01T13:52:50.251Z,5.80
2019-03-01T13:55:22.275Z,5.90
2019-03-01T13:57:50.165Z,6.00
2019-03-01T14:00:20.271Z,6.20
2019-03-01T14:02:48.711Z,6.30
2019-03-01T14:05:17.653Z,6.40
2019-03-01T14:07:46.532Z,6.50
2019-03-01T14:10:28.255Z,6.60
2019-03-01T14:12:57.598Z,6.70
2019-03-01T14:15:26.086Z,6.70
2019-03-01T14:18:00.704Z,6.70
2019-03-01T14:20:24.777Z,6.60
2019-03-01T14:22:53.233Z,6.60
2019-03-01T14:25:21.756Z,6.60
2019-03-01T14:27:50.180Z,6.50
2019-03-01T14:30:25.197Z,6.60
2019-03-01T14:32:56.964Z,6.60
2019-03-01T14:35:25.784Z,6.60
2019-03-01T14:37:55.336Z,6.60
2019-03-01T14:40:24.114Z,6.60
2019-03-01T14:42:52.649Z,6.60
2019-03-01T14:45:25.669Z,6.50
2019-03-01T14:47:54.450Z,6.50
2019-03-01T14:50:24.432Z,6.50
2019-03-01T14:52:56.930Z,6.50
2019-03-01T14:55:34.928Z,6.50
2019-03-01T14:58:12.144Z,6.50
2019-03-01T15:00:50.877Z,6.40
2019-03-01T15:03:30.770Z,6.40
2019-03-01T15:05:59.391Z,6.50
2019-03-01T15:08:27.929Z,6.50
2019-03-01T15:10:57.326Z,6.50
2019-03-01T15:13:27.801Z,6.50
2019-03-01T15:15:56.392Z,6.50
2019-03-01T15:18:25.124Z,6.60
2019-03-01T15:20:56.348Z,6.50
2019-03-01T15:23:24.779Z,6.50
2019-03-01T15:25:53.335Z,6.50
2019-03-01T15:28:22.366Z,6.40
2019-03-01T15:30:50.794Z,6.40
2019-03-01T15:33:19.354Z,6.30
2019-03-01T15:35:47.792Z,6.30
2019-03-01T15:38:16.318Z,6.20
2019-03-01T15:40:44.769Z,6.20
2019-03-01T15:43:13.229Z,6.20
2019-03-01T15:45:41.665Z,6.20
2019-03-01T15:48:10.139Z,6.20
2019-03-01T15:50:38.751Z,6.20
2019-03-01T15:53:07.206Z,6.20
2019-03-01T15:55:35.677Z,6.20
2019-03-01T15:58:04.193Z,6.10
2019-03-01T16:00:32.671Z,6.10
2019-03-01T16:03:01.158Z,6.00
2019-03-01T16:05:29.650Z,6.00
2019-03-01T16:07:58.101Z,6.00
2019-03-01T16:10:26.552Z,6.00
2019-03-01T16:12:55.015Z,5.90
2019-03-01T16:15:23.448Z,5.90
2019-03-01T16:17:51.929Z,5.90
2019-03-01T16:20:21.007Z,5.90
2019-03-01T16:22:51.150Z,5.90
2019-03-01T16:25:20.574Z,5.90
2019-03-01T16:27:50.623Z,5.90
2019-03-01T16:30:21.333Z,5.90
2019-03-01T16:32:50.704Z,5.80
2019-03-01T16:35:22.006Z,5.90
2019-03-01T16:37:57.874Z,5.90
2019-03-01T16:40:24.684Z,5.90
2019-03-01T16:42:54.578Z,5.90
2019-03-01T16:45:23.162Z,5.90
2019-03-01T16:47:51.624Z,5.90
2019-03-01T16:50:20.705Z,5.90
2019-03-01T16:52:49.221Z,5.80
2019-03-01T16:55:27.742Z,5.80
2019-03-01T16:58:06.286Z,5.80
2019-03-01T17:00:26.428Z,5.80
2019-03-01T17:03:06.398Z,5.80
2019-03-01T17:05:35.820Z,5.80
2019-03-01T17:08:06.046Z,5.80
2019-03-01T17:10:34.759Z,5.90
2019-03-01T17:13:03.262Z,5.80
2019-03-01T17:15:31.796Z,5.80
2019-03-01T17:18:00.246Z,5.80
2019-03-01T17:20:29.073Z,5.70
2019-03-01T17:22:59.654Z,5.70
2019-03-01T17:25:27.846Z,5.70
2019-03-01T17:27:56.420Z,5.60
2019-03-01T17:30:25.784Z,5.60
2019-03-01T17:32:54.271Z,5.50
2019-03-01T17:35:22.803Z,5.50
2019-03-01T17:37:51.311Z,5.50
2019-03-01T17:40:20.013Z,5.50
2019-03-01T17:42:48.602Z,5.50
2019-03-01T17:45:24.683Z,5.50
2019-03-01T17:47:55.316Z,5.50
2019-03-01T17:50:23.477Z,5.50
2019-03-01T17:52:51.943Z,5.50
2019-03-01T17:55:24.390Z,5.40
2019-03-01T17:57:53.156Z,5.40
2019-03-01T18:00:40.343Z,5.40
2019-03-01T18:03:09.342Z,5.40
2019-03-01T18:05:40.716Z,5.40
2019-03-01T18:08:08.033Z,5.40
2019-03-01T18:10:36.493Z,5.40
2019-03-01T18:13:04.980Z,5.40
2019-03-01T18:15:33.489Z,5.30
2019-03-01T18:18:01.922Z,5.30
2019-03-01T18:20:30.369Z,5.30
2019-03-01T18:22:59.423Z,5.30
2019-03-01T18:25:29.137Z,5.20
2019-03-01T18:27:57.626Z,5.20
2019-03-01T18:30:36.307Z,5.20
2019-03-01T18:33:04.752Z,5.10
2019-03-01T18:35:33.248Z,5.10
2019-03-01T18:38:01.689Z,5.10
2019-03-01T18:40:30.994Z,5.00
2019-03-01T18:42:59.445Z,5.00
2019-03-01T18:45:28.064Z,5.00
2019-03-01T18:47:56.502Z,5.00
2019-03-01T18:50:31.161Z,5.00
2019-03-01T18:52:58.949Z,5.00
2019-03-01T18:55:27.506Z,5.00
2019-03-01T18:57:56.014Z,5.00
2019-03-01T19:00:35.646Z,5.00
2019-03-01T19:03:04.465Z,5.00
2019-03-01T19:05:36.645Z,5.00
2019-03-01T19:08:04.657Z,5.00
2019-03-01T19:10:33.735Z,5.00
2019-03-01T19:13:02.211Z,5.00
2019-03-01T19:15:30.733Z,5.00
2019-03-01T19:17:59.160Z,5.00
2019-03-01T19:20:33.266Z,5.00
2019-03-01T19:23:01.758Z,4.90
2019-03-01T19:25:30.214Z,4.90
2019-03-01T19:27:58.641Z,4.90
2019-03-01T19:30:27.105Z,4.80
2019-03-01T19:32:58.784Z,4.90
2019-03-01T19:35:29.712Z,4.90
2019-03-01T19:37:55.937Z,4.90
2019-03-01T19:40:24.680Z,4.90
2019-03-01T19:42:53.209Z,4.90
2019-03-01T19:45:21.645Z,4.90
2019-03-01T19:47:50.093Z,4.80
2019-03-01T19:50:24.982Z,4.90
2019-03-01T19:52:53.178Z,4.80
2019-03-01T19:55:21.614Z,4.80
2019-03-01T19:57:50.057Z,4.80
2019-03-01T20:00:29.343Z,4.80
2019-03-01T20:02:57.924Z,4.80
2019-03-01T20:05:36.684Z,4.80
2019-03-01T20:08:05.203Z,4.80
2019-03-01T20:10:33.638Z,4.80
2019-03-01T20:13:02.119Z,4.80
2019-03-01T20:15:31.442Z,4.80
2019-03-01T20:17:59.989Z,4.80
2019-03-01T20:20:30.006Z,4.80
2019-03-01T20:22:59.526Z,4.80
2019-03-01T20:25:28.039Z,4.90
2019-03-01T20:27:56.583Z,4.90
2019-03-01T20:30:31.695Z,4.80
2019-03-01T20:33:00.281Z,4.90
2019-03-01T20:35:28.853Z,4.80
2019-03-01T20:38:00.266Z,4.80
2019-03-01T20:40:28.490Z,4.80
2019-03-01T20:43:00.497Z,4.70
2019-03-01T20:45:29.797Z,4.60
2019-03-01T20:47:59.242Z,4.50
2019-03-01T20:50:27.776Z,4.40
2019-03-01T20:52:56.339Z,4.50
2019-03-01T20:55:24.809Z,4.60
2019-03-01T20:57:53.297Z,4.60
2019-03-01T21:00:26.216Z,4.70
2019-03-01T21:02:54.335Z,4.70
2019-03-01T21:05:24.895Z,4.60
2019-03-01T21:07:53.763Z,4.60
2019-03-01T21:10:32.385Z,4.50
2019-03-01T21:13:00.874Z,4.50
2019-03-01T21:15:29.383Z,4.50
2019-03-01T21:17:58.658Z,4.40
2019-03-01T21:20:27.316Z,4.40
2019-03-01T21:22:55.827Z,4.40
2019-03-01T21:25:25.039Z,4.40
2019-03-01T21:27:53.518Z,4.30
2019-03-01T21:30:29.705Z,4.30
2019-03-01T21:32:58.156Z,4.30
2019-03-01T21:35:26.610Z,4.20
2019-03-01T21:37:55.097Z,4.20
2019-03-01T21:40:23.597Z,4.30
2019-03-01T21:42:52.671Z,4.40
2019-03-01T21:45:24.451Z,4.40
2019-03-01T21:47:53.048Z,4.30
2019-03-01T21:50:21.684Z,4.30
2019-03-01T21:52:50.138Z,4.30
2019-03-01T21:55:29.579Z,4.40
2019-03-01T21:57:58.291Z,4.30
2019-03-01T22:00:29.723Z,4.40
2019-03-01T22:02:58.153Z,4.30
2019-03-01T22:05:26.634Z,4.30
2019-03-01T22:07:55.087Z,4.30
2019-03-01T22:10:23.592Z,4.30
2019-03-01T22:12:52.161Z,4.30
2019-03-01T22:15:25.429Z,4.20
2019-03-01T22:17:52.632Z,4.20
2019-03-01T22:20:21.948Z,4.20
2019-03-01T22:22:50.445Z,4.20
2019-03-01T22:25:18.895Z,4.30
2019-03-01T22:27:47.331Z,4.20
2019-03-01T22:30:27.575Z,4.20
2019-03-01T22:32:56.006Z,4.20
2019-03-01T22:35:24.465Z,4.20
2019-03-01T22:37:52.917Z,4.20
2019-03-01T22:40:23.871Z,4.20
2019-03-01T22:42:51.604Z,4.20
2019-03-01T22:45:20.063Z,4.30
2019-03-01T22:47:48.528Z,4.30
2019-03-01T22:50:18.144Z,4.40
2019-03-01T22:52:46.735Z,4.30
2019-03-01T22:55:17.207Z,4.30
2019-03-01T22:57:45.658Z,4.10
2019-03-01T23:00:49.626Z,4.10
2019-03-01T23:03:20.012Z,4.10
2019-03-01T23:05:48.729Z,4.10
2019-03-01T23:08:17.156Z,4.10
2019-03-01T23:10:45.634Z,4.10
2019-03-01T23:13:16.884Z,4.20
2019-03-01T23:15:44.601Z,2.60
2019-03-01T23:18:13.161Z,4.20
2019-03-01T23:20:41.779Z,4.20
2019-03-01T23:23:10.231Z,4.20
2019-03-01T23:25:38.716Z,4.20
2019-03-01T23:28:08.039Z,4.20
2019-03-01T23:30:37.344Z,4.20
2019-03-01T23:33:05.859Z,4.30
2019-03-01T23:35:34.671Z,4.40
2019-03-01T23:38:03.128Z,4.50
2019-03-01T23:40:32.809Z,4.50
2019-03-01T23:43:01.837Z,4.40
2019-03-01T23:45:30.294Z,4.40
2019-03-01T23:47:58.716Z,4.40
2019-03-01T23:50:27.169Z,4.30
2019-03-01T23:52:58.824Z,4.30
2019-03-01T23:55:25.779Z,4.20
2019-03-01T23:57:54.233Z,4.30
